Time;durP1;ratioP1;P1;durP2;ratioP2;P2;SDS_P1;SDS_P2;PMS_P1;PMS_P2;Temp;Humidity;BMP_temperature;BMP_pressure;BME280_temperature;BME280_humidity;BME280_pressure;Samples;Min_cycle;Max_cycle;Signal;HPM_P1;HPM_P2
2022/08/05 00:00:16;;;;;;;7.43;2.58;;;20.60;78.20;;;;;;5015513;28;20038;-79
2022/08/05 00:02:41;;;;;;;4.57;2.65;;;20.60;79.70;;;;;;5006798;28;20789;-79
2022/08/05 00:05:07;;;;;;;4.97;2.75;;;20.60;78.90;;;;;;5009046;28;20034;-79
2022/08/05 00:07:32;;;;;;;5.88;2.80;;;20.50;79.90;;;;;;4994042;28;20113;-79
2022/08/05 00:09:58;;;;;;;5.68;2.88;;;20.50;78.80;;;;;;5027542;28;20076;-79
2022/08/05 00:12:24;;;;;;;5.10;2.65;;;20.50;80.30;;;;;;4992782;28;20056;-79
2022/08/05 00:14:49;;;;;;;5.32;2.35;;;20.40;79.80;;;;;;5003620;28;20516;-79
2022/08/05 00:17:15;;;;;;;8.20;2.80;;;20.30;80.20;;;;;;4987958;28;20040;-79
2022/08/05 00:19:40;;;;;;;5.80;2.80;;;20.40;82.20;;;;;;5016947;28;20029;-79
2022/08/05 00:22:06;;;;;;;5.10;2.38;;;20.30;81.80;;;;;;5022430;28;20033;-80
2022/08/05 00:24:31;;;;;;;5.35;2.38;;;20.30;81.50;;;;;;4994878;28;20088;-80
2022/08/05 00:26:58;;;;;;;5.88;2.67;;;20.30;81.60;;;;;;5013656;28;20084;-80
2022/08/05 00:29:23;;;;;;;5.03;2.90;;;20.30;81.40;;;;;;5028953;28;20029;-80
2022/08/05 00:31:49;;;;;;;5.43;2.58;;;20.20;85.10;;;;;;4963853;28;20367;-80
2022/08/05 00:34:15;;;;;;;4.32;2.90;;;20.20;86.30;;;;;;4990066;28;20030;-80
2022/08/05 00:36:40;;;;;;;7.75;3.25;;;20.10;83.00;;;;;;5009860;28;20235;-80
2022/08/05 00:39:06;;;;;;;4.90;2.95;;;20.10;85.90;;;;;;4993792;28;20397;-80
2022/08/05 00:41:32;;;;;;;5.32;3.08;;;20.00;85.70;;;;;;5026037;28;20076;-80
2022/08/05 00:43:58;;;;;;;8.60;2.95;;;20.00;90.30;;;;;;5014318;28;20030;-80
2022/08/05 00:46:23;;;;;;;9.50;3.47;;;20.00;91.10;;;;;;4996056;28;20049;-80
2022/08/05 00:48:50;;;;;;;6.75;3.65;;;19.90;90.30;;;;;;4994974;28;20489;-80
2022/08/05 00:51:15;;;;;;;9.07;3.50;;;19.90;92.90;;;;;;4991309;28;20400;-80
2022/08/05 00:53:41;;;;;;;6.75;2.90;;;19.80;92.40;;;;;;4993710;28;20030;-80
2022/08/05 00:56:07;;;;;;;7.45;2.80;;;19.80;92.30;;;;;;5013830;28;20100;-80
2022/08/05 00:58:33;;;;;;;6.78;2.75;;;19.80;93.80;;;;;;4995815;28;20038;-80
2022/08/05 01:00:58;;;;;;;5.38;3.17;;;19.80;97.80;;;;;;4989290;28;20390;-80
2022/08/05 01:03:24;;;;;;;4.07;3.22;;;19.90;95.20;;;;;;4995325;28;20039;-80
2022/08/05 01:05:53;;;;;;;5.10;3.03;;;19.80;97.10;;;;;;5013846;28;20034;-80
2022/08/05 01:08:18;;;;;;;6.60;2.97;;;19.70;94.40;;;;;;5010388;28;20033;-80
2022/08/05 01:10:48;;;;;;;6.28;2.88;;;19.70;96.30;;;;;;4995370;28;20033;-80
2022/08/05 01:13:24;;;;;;;7.22;3.10;;;19.70;94.60;;;;;;4985089;28;20040;-80
2022/08/05 01:15:53;;;;;;;4.95;2.97;;;19.60;95.10;;;;;;4988468;28;20033;-79
2022/08/05 01:18:22;;;;;;;6.65;2.97;;;19.50;95.20;;;;;;4975037;28;20034;-79
2022/08/05 01:21:11;;;;;;;4.47;3.17;;;19.50;95.80;;;;;;4994734;28;20038;-79
2022/08/05 01:24:06;;;;;;;7.05;3.33;;;19.50;96.20;;;;;;5010402;28;20034;-79
2022/08/05 01:26:47;;;;;;;4.78;2.92;;;19.40;97.40;;;;;;4989959;28;20576;-79
2022/08/05 01:29:23;;;;;;;4.32;3.13;;;19.50;97.80;;;;;;4978911;28;20096;-79
2022/08/05 01:31:51;;;;;;;9.50;3.35;;;19.60;99.20;;;;;;5001290;28;20038;-79
2022/08/05 01:34:30;;;;;;;3.38;3.08;;;19.50;97.40;;;;;;4981594;28;20034;-79
2022/08/05 01:37:01;;;;;;;5.65;3.45;;;19.40;97.00;;;;;;4976980;28;20062;-79
2022/08/05 01:39:27;;;;;;;11.20;3.58;;;19.40;97.40;;;;;;4992616;28;20490;-79
2022/08/05 01:41:53;;;;;;;6.35;4.10;;;19.30;97.90;;;;;;5002589;28;20041;-79
2022/08/05 01:44:18;;;;;;;8.27;4.03;;;19.30;97.90;;;;;;4990453;28;20073;-79
2022/08/05 01:46:44;;;;;;;9.48;4.53;;;19.20;98.10;;;;;;5007990;28;20034;-79
2022/08/05 01:49:10;;;;;;;12.85;4.43;;;19.20;98.60;;;;;;5010851;28;20170;-79
2022/08/05 01:51:36;;;;;;;8.70;4.28;;;19.20;98.80;;;;;;5023149;28;20042;-79
2022/08/05 01:54:02;;;;;;;4.63;3.55;;;19.20;99.20;;;;;;4987027;28;20030;-80
2022/08/05 01:56:32;;;;;;;8.77;4.03;;;19.30;99.90;;;;;;4990953;28;20450;-79
2022/08/05 01:58:58;;;;;;;7.57;4.82;;;19.30;99.30;;;;;;5005779;28;20030;-79
2022/08/05 02:01:23;;;;;;;8.00;3.85;;;19.20;99.90;;;;;;4993550;28;20398;-79
2022/08/05 02:03:49;;;;;;;7.45;4.25;;;19.20;99.80;;;;;;4994351;28;20026;-78
2022/08/05 02:06:14;;;;;;;6.93;4.07;;;19.30;99.90;;;;;;4991224;28;20088;-78
2022/08/05 02:08:40;;;;;;;8.98;4.43;;;19.30;99.80;;;;;;4995793;28;20094;-79
2022/08/05 02:11:11;;;;;;;6.82;4.30;;;19.30;99.90;;;;;;4978395;28;20419;-78
2022/08/05 02:13:40;;;;;;;9.63;4.30;;;19.20;99.90;;;;;;4993932;28;20037;-78
2022/08/05 02:16:18;;;;;;;6.03;5.03;;;19.20;99.90;;;;;;4984670;28;20394;-78
2022/08/05 02:18:47;;;;;;;7.15;4.05;;;19.20;99.90;;;;;;4986054;28;20042;-79
2022/08/05 02:21:15;;;;;;;5.78;3.83;;;19.40;99.90;;;;;;4994817;28;20102;-78
2022/08/05 02:23:41;;;;;;;4.35;3.88;;;19.50;99.90;;;;;;4997469;28;20034;-79
2022/08/05 02:26:08;;;;;;;9.57;3.65;;;19.50;99.90;;;;;;4974646;28;20108;-79
2022/08/05 02:28:35;;;;;;;6.72;3.80;;;19.50;99.90;;;;;;5009186;28;20033;-79
2022/08/05 02:31:18;;;;;;;4.93;3.30;;;19.50;99.90;;;;;;4980145;28;20030;-79
2022/08/05 02:33:50;;;;;;;9.60;4.53;;;19.50;99.90;;;;;;4981005;28;20034;-79
2022/08/05 02:36:16;;;;;;;7.70;4.50;;;19.50;99.90;;;;;;5001725;28;20030;-79
2022/08/05 02:38:44;;;;;;;6.70;5.03;;;19.40;99.90;;;;;;4990328;28;20064;-79
2022/08/05 02:41:10;;;;;;;10.45;5.00;;;19.40;99.90;;;;;;5012088;28;20034;-79
2022/08/05 02:43:37;;;;;;;13.93;6.07;;;19.40;99.90;;;;;;5003918;28;20041;-78
2022/08/05 02:46:02;;;;;;;10.75;6.30;;;19.10;99.90;;;;;;4962574;28;20041;-78
2022/08/05 02:48:28;;;;;;;11.13;6.20;;;19.00;99.90;;;;;;5019315;28;20096;-78
2022/08/05 02:50:54;;;;;;;8.18;6.10;;;19.00;99.90;;;;;;4990779;28;20026;-79
2022/08/05 02:53:20;;;;;;;12.48;7.22;;;19.10;99.90;;;;;;4996618;28;20072;-78
2022/08/05 02:55:47;;;;;;;8.45;6.18;;;19.10;99.90;;;;;;4990150;28;20038;-79
2022/08/05 02:58:14;;;;;;;10.02;7.35;;;19.00;99.90;;;;;;4977732;28;20077;-79
2022/08/05 03:00:40;;;;;;;11.68;6.53;;;19.00;99.90;;;;;;5011362;28;20469;-79
2022/08/05 03:03:05;;;;;;;14.35;6.60;;;18.90;99.90;;;;;;4993651;28;20038;-79
2022/08/05 03:05:31;;;;;;;10.82;6.63;;;19.00;99.90;;;;;;4995697;28;20042;-79
2022/08/05 03:07:56;;;;;;;8.32;6.28;;;19.00;99.90;;;;;;4987537;28;20026;-79
2022/08/05 03:10:24;;;;;;;12.02;6.53;;;19.00;99.90;;;;;;4983518;28;20035;-79
2022/08/05 03:12:49;;;;;;;13.38;6.28;;;18.90;99.90;;;;;;5025300;28;20591;-79
2022/08/05 03:15:15;;;;;;;10.23;6.75;;;18.90;99.90;;;;;;4990839;28;20411;-79
2022/08/05 03:17:40;;;;;;;8.50;4.43;;;18.90;99.90;;;;;;4995115;28;20029;-79
2022/08/05 03:20:06;;;;;;;12.35;7.25;;;18.90;99.90;;;;;;4977282;28;20034;-78
2022/08/05 03:22:32;;;;;;;9.07;7.10;;;18.90;99.90;;;;;;5007489;28;20042;-78
2022/08/05 03:24:58;;;;;;;10.75;6.32;;;18.90;99.90;;;;;;4996053;28;20037;-79
2022/08/05 03:27:23;;;;;;;10.68;6.68;;;18.80;99.90;;;;;;5004200;28;20114;-79
2022/08/05 03:29:49;;;;;;;9.60;6.93;;;18.80;99.90;;;;;;4975227;28;20030;-78
2022/08/05 03:32:15;;;;;;;11.50;6.72;;;18.80;99.90;;;;;;4999355;28;20453;-79
2022/08/05 03:34:43;;;;;;;21.15;7.00;;;18.70;99.90;;;;;;4988605;28;20445;-79
2022/08/05 03:37:09;;;;;;;9.75;7.20;;;18.70;99.90;;;;;;4987462;28;20109;-78
2022/08/05 03:39:34;;;;;;;13.00;6.78;;;18.70;99.90;;;;;;4993724;28;20121;-78
2022/08/05 03:42:00;;;;;;;12.05;6.50;;;18.70;99.90;;;;;;5005873;28;20048;-79
2022/08/05 03:44:26;;;;;;;9.73;7.25;;;18.60;99.90;;;;;;4998573;28;20049;-79
2022/08/05 03:46:51;;;;;;;9.93;7.45;;;18.60;99.90;;;;;;4968711;28;20529;-78
2022/08/05 03:49:17;;;;;;;9.43;6.60;;;18.60;99.90;;;;;;5023431;28;20040;-78
2022/08/05 03:51:50;;;;;;;8.50;6.07;;;18.60;99.90;;;;;;4995715;28;20041;-78
2022/08/05 03:54:34;;;;;;;9.15;6.85;;;18.60;99.90;;;;;;5009392;28;20121;-78
2022/08/05 03:56:59;;;;;;;9.65;5.18;;;18.40;99.90;;;;;;4999389;28;20490;-78
2022/08/05 03:59:32;;;;;;;4.90;3.53;;;18.50;99.90;;;;;;4996437;28;20034;-79
2022/08/05 04:01:58;;;;;;;6.22;3.55;;;18.60;99.90;;;;;;4981479;28;20036;-78
2022/08/05 04:04:23;;;;;;;5.93;4.00;;;18.90;99.90;;;;;;4991336;28;20124;-78
2022/08/05 04:06:49;;;;;;;5.90;3.78;;;19.10;99.90;;;;;;5008351;28;20034;-78
2022/08/05 04:09:15;;;;;;;10.23;6.03;;;19.00;99.90;;;;;;4968049;28;20054;-78
2022/08/05 04:11:40;;;;;;;10.98;6.07;;;18.70;99.90;;;;;;4982471;28;20034;-78
2022/08/05 04:14:06;;;;;;;10.32;7.30;;;18.60;99.90;;;;;;4980844;28;20045;-78
2022/08/05 04:16:34;;;;;;;8.05;7.25;;;18.60;99.90;;;;;;4964756;28;20482;-78
2022/08/05 04:19:00;;;;;;;11.57;6.78;;;18.60;99.90;;;;;;5005460;28;20029;-78
2022/08/05 04:21:25;;;;;;;10.70;8.10;;;18.60;99.90;;;;;;4991913;28;20039;-78
2022/08/05 04:23:51;;;;;;;11.75;7.07;;;18.50;99.90;;;;;;4983977;28;20049;-78
2022/08/05 04:26:16;;;;;;;12.25;7.43;;;18.50;99.90;;;;;;4982846;28;20065;-78
2022/08/05 04:28:42;;;;;;;8.70;6.60;;;18.60;99.90;;;;;;4997012;28;20030;-78
2022/08/05 04:31:07;;;;;;;10.40;7.97;;;18.60;99.90;;;;;;5011040;28;20093;-78
2022/08/05 04:33:33;;;;;;;6.70;5.45;;;18.50;99.90;;;;;;5010756;28;20029;-78
2022/08/05 04:35:58;;;;;;;9.68;6.82;;;18.60;99.90;;;;;;5010977;28;20065;-78
2022/08/05 04:38:24;;;;;;;10.95;7.70;;;18.60;99.90;;;;;;5007994;28;20026;-78
2022/08/05 04:40:49;;;;;;;9.60;6.63;;;18.60;99.90;;;;;;5014756;28;20034;-78
2022/08/05 04:43:15;;;;;;;15.88;8.43;;;18.70;99.90;;;;;;5028961;28;20482;-78
2022/08/05 04:45:41;;;;;;;11.65;9.77;;;18.70;99.90;;;;;;4997648;28;20085;-78
2022/08/05 04:48:07;;;;;;;17.35;12.40;;;18.70;99.90;;;;;;4981464;28;20109;-78
2022/08/05 04:50:48;;;;;;;22.17;13.10;;;18.60;99.90;;;;;;4997002;28;20041;-78
2022/08/05 04:53:17;;;;;;;18.00;16.10;;;18.60;99.90;;;;;;5011265;28;20034;-78
2022/08/05 04:55:43;;;;;;;22.38;18.48;;;18.50;99.90;;;;;;5017785;28;20051;-78
2022/08/05 04:58:10;;;;;;;23.17;19.00;;;18.60;99.90;;;;;;5014850;28;20108;-78
2022/08/05 05:00:36;;;;;;;24.75;21.85;;;18.60;99.90;;;;;;4983359;28;20037;-78
2022/08/05 05:03:02;;;;;;;30.20;24.55;;;18.60;99.90;;;;;;4990562;28;20026;-78
2022/08/05 05:05:28;;;;;;;28.95;24.60;;;18.50;99.90;;;;;;4971692;28;20592;-79
2022/08/05 05:07:54;;;;;;;40.67;26.23;;;18.60;99.90;;;;;;4994976;28;20041;-78
2022/08/05 05:10:20;;;;;;;37.47;26.38;;;18.60;99.90;;;;;;5017207;28;20034;-78
2022/08/05 05:12:45;;;;;;;32.85;25.83;;;18.60;99.90;;;;;;5013149;28;20284;-79
2022/08/05 05:15:11;;;;;;;32.90;25.35;;;18.60;99.90;;;;;;4990585;28;20482;-78
2022/08/05 05:17:40;;;;;;;31.15;25.30;;;18.60;99.90;;;;;;4995692;28;20069;-78
2022/08/05 05:20:07;;;;;;;30.52;24.90;;;18.60;99.90;;;;;;4991605;28;20042;-78
2022/08/05 05:22:33;;;;;;;34.05;25.83;;;18.60;99.90;;;;;;5013282;28;20666;-78
2022/08/05 05:24:59;;;;;;;34.40;26.23;;;18.60;99.90;;;;;;5013030;28;20375;-79
2022/08/05 05:27:28;;;;;;;34.40;28.02;;;18.70;99.90;;;;;;4995982;28;20281;-78
2022/08/05 05:29:53;;;;;;;35.38;26.98;;;18.60;99.90;;;;;;4994398;28;20041;-78
2022/08/05 05:32:19;;;;;;;38.30;27.50;;;18.60;99.90;;;;;;4998615;28;20025;-78
2022/08/05 05:34:44;;;;;;;32.65;27.67;;;18.60;99.90;;;;;;4993986;28;20034;-78
2022/08/05 05:37:11;;;;;;;32.78;25.65;;;18.70;99.90;;;;;;5008041;28;20034;-78
2022/08/05 05:39:37;;;;;;;30.25;22.83;;;18.70;99.90;;;;;;4989157;28;20490;-78
2022/08/05 05:42:03;;;;;;;33.75;23.38;;;18.70;99.90;;;;;;5005895;28;20155;-79
2022/08/05 05:44:28;;;;;;;37.70;23.70;;;18.70;99.90;;;;;;5014528;28;20080;-79
2022/08/05 05:46:54;;;;;;;27.88;23.90;;;18.70;99.90;;;;;;4990241;28;20053;-79
2022/08/05 05:49:19;;;;;;;43.63;24.27;;;18.60;99.90;;;;;;5002173;28;20080;-79
2022/08/05 05:51:45;;;;;;;32.85;23.08;;;18.60;99.90;;;;;;5014444;28;20469;-78
2022/08/05 05:54:10;;;;;;;28.30;21.33;;;18.60;99.90;;;;;;4995908;28;20018;-79
2022/08/05 05:56:36;;;;;;;29.77;21.73;;;18.60;99.90;;;;;;5010603;28;20397;-78
2022/08/05 05:59:05;;;;;;;25.25;21.35;;;18.60;99.90;;;;;;5011629;28;20455;-78
2022/08/05 06:01:32;;;;;;;30.02;21.42;;;18.60;99.90;;;;;;4990407;28;20034;-79
2022/08/05 06:03:57;;;;;;;27.45;20.73;;;18.60;99.90;;;;;;4990000;28;20029;-78
2022/08/05 06:06:23;;;;;;;61.10;22.05;;;18.60;99.90;;;;;;4994551;28;20039;-78
2022/08/05 06:08:49;;;;;;;114.68;24.77;;;18.60;99.90;;;;;;5008471;28;20430;-79
2022/08/05 06:11:17;;;;;;;29.58;23.63;;;18.50;99.90;;;;;;5013225;28;20034;-78
2022/08/05 06:13:42;;;;;;;32.10;24.30;;;18.30;99.90;;;;;;4970780;28;20030;-78
2022/08/05 06:16:08;;;;;;;43.58;25.20;;;18.30;99.90;;;;;;5009358;28;20404;-78
2022/08/05 06:18:33;;;;;;;38.58;24.02;;;18.40;99.90;;;;;;4987875;28;20036;-78
2022/08/05 06:20:59;;;;;;;35.67;25.23;;;18.50;99.90;;;;;;5006337;28;20038;-78
2022/08/05 06:23:25;;;;;;;37.75;25.95;;;18.50;99.90;;;;;;4995784;28;20061;-78
2022/08/05 06:25:50;;;;;;;35.22;24.33;;;18.50;99.90;;;;;;5014621;28;20026;-78
2022/08/05 06:28:16;;;;;;;43.42;28.25;;;18.50;99.90;;;;;;4989606;28;20044;-78
2022/08/05 06:30:41;;;;;;;42.85;28.38;;;18.50;99.90;;;;;;4993652;28;20025;-78
2022/08/05 06:33:07;;;;;;;46.28;28.35;;;18.50;99.90;;;;;;4991394;28;20100;-75
2022/08/05 06:35:33;;;;;;;49.17;31.55;;;18.50;99.90;;;;;;4995706;28;20105;-77
2022/08/05 06:37:58;;;;;;;40.08;26.05;;;18.50;99.90;;;;;;4997432;28;20034;-79
2022/08/05 06:40:24;;;;;;;45.88;33.45;;;18.60;99.90;;;;;;4991674;28;20040;-78
2022/08/05 06:42:49;;;;;;;44.42;31.73;;;18.50;99.90;;;;;;4993426;28;20029;-78
2022/08/05 06:45:15;;;;;;;41.20;31.65;;;18.50;99.90;;;;;;4973454;28;20569;-75
2022/08/05 06:47:41;;;;;;;42.13;32.80;;;18.40;99.90;;;;;;4989029;28;20156;-75
2022/08/05 06:50:07;;;;;;;43.15;34.22;;;18.30;99.90;;;;;;5007622;28;20148;-75
2022/08/05 06:52:32;;;;;;;44.17;34.92;;;18.30;99.90;;;;;;5009006;28;20048;-78
2022/08/05 06:54:58;;;;;;;51.05;40.45;;;18.30;99.90;;;;;;5014197;28;20033;-76
2022/08/05 06:57:23;;;;;;;47.80;36.63;;;18.20;99.90;;;;;;5016303;28;20107;-76
2022/08/05 06:59:49;;;;;;;46.03;35.72;;;18.20;99.90;;;;;;5014992;28;20033;-77
2022/08/05 07:02:14;;;;;;;42.78;31.83;;;18.20;99.90;;;;;;4974940;28;20021;-76
2022/08/05 07:04:40;;;;;;;39.25;30.25;;;18.20;99.90;;;;;;5003620;28;20112;-77
2022/08/05 07:07:05;;;;;;;35.25;30.30;;;18.20;99.90;;;;;;4999341;28;20041;-76
2022/08/05 07:09:31;;;;;;;37.42;27.90;;;18.10;99.90;;;;;;4999343;28;20049;-77
2022/08/05 07:11:56;;;;;;;37.45;28.02;;;18.00;99.90;;;;;;5012242;28;20064;-76
2022/08/05 07:17:06;;;;;;;40.67;28.63;;;18.00;99.90;;;;;;5013773;28;20068;-77
2022/08/05 07:19:32;;;;;;;32.42;26.50;;;18.00;99.90;;;;;;4991200;28;20524;-76
2022/08/05 07:21:57;;;;;;;28.40;25.13;;;18.00;99.90;;;;;;5004925;28;20041;-76
2022/08/05 07:24:23;;;;;;;33.38;24.08;;;17.90;99.90;;;;;;5011392;28;20065;-76
2022/08/05 07:26:49;;;;;;;30.60;23.60;;;17.90;99.90;;;;;;5009767;28;20037;-77
2022/08/05 07:29:14;;;;;;;31.77;24.13;;;17.90;99.90;;;;;;5013818;28;20052;-76
2022/08/05 07:31:40;;;;;;;28.92;24.83;;;17.80;99.90;;;;;;5009584;28;20509;-77
2022/08/05 07:34:06;;;;;;;27.60;22.08;;;17.80;99.90;;;;;;4996742;28;20375;-76
2022/08/05 07:36:32;;;;;;;30.02;22.33;;;17.90;99.90;;;;;;5014326;28;20068;-76
2022/08/05 07:38:59;;;;;;;27.75;20.63;;;17.90;99.90;;;;;;4994454;28;20061;-76
2022/08/05 07:41:24;;;;;;;31.38;19.20;;;18.00;99.90;;;;;;4975760;28;20034;-76
2022/08/05 07:43:51;;;;;;;17.50;14.38;;;18.00;99.90;;;;;;5009625;28;20033;-77
2022/08/05 07:46:17;;;;;;;19.17;14.65;;;18.00;99.90;;;;;;4994012;28;20516;-76
2022/08/05 07:48:42;;;;;;;17.35;12.48;;;18.00;99.90;;;;;;4991869;28;20061;-77
2022/08/05 07:51:08;;;;;;;20.05;12.35;;;18.00;99.90;;;;;;5007563;28;20026;-76
2022/08/05 07:53:35;;;;;;;16.23;10.32;;;18.00;99.90;;;;;;4970059;28;20057;-76
2022/08/05 07:56:01;;;;;;;15.18;9.95;;;18.00;99.90;;;;;;4993721;28;20545;-76
2022/08/05 07:58:26;;;;;;;23.50;9.73;;;18.10;99.90;;;;;;4975039;28;20122;-76
2022/08/05 08:00:52;;;;;;;15.18;9.98;;;18.00;99.90;;;;;;5024578;28;20054;-76
2022/08/05 08:03:17;;;;;;;15.30;10.23;;;18.00;99.90;;;;;;5008338;28;20026;-76
2022/08/05 08:05:43;;;;;;;13.88;10.52;;;18.00;99.90;;;;;;4973965;28;20092;-76
2022/08/05 08:08:09;;;;;;;16.20;11.32;;;18.00;99.90;;;;;;5013688;28;20133;-76
2022/08/05 08:10:35;;;;;;;16.67;11.30;;;17.90;99.90;;;;;;5011829;28;21112;-76
2022/08/05 08:13:00;;;;;;;13.57;11.07;;;18.00;99.90;;;;;;5009977;28;20120;-77
2022/08/05 08:15:26;;;;;;;16.70;11.55;;;18.00;99.90;;;;;;4994994;28;20038;-76
2022/08/05 08:17:51;;;;;;;18.40;11.23;;;17.90;99.90;;;;;;5009936;28;20038;-76
2022/08/05 08:20:17;;;;;;;15.43;11.60;;;17.90;99.90;;;;;;5011236;28;20120;-75
2022/08/05 08:22:42;;;;;;;15.68;10.52;;;18.00;99.90;;;;;;4978024;28;20092;-76
2022/08/05 08:25:09;;;;;;;13.80;9.82;;;18.00;99.90;;;;;;4988681;28;20022;-75
2022/08/05 08:27:34;;;;;;;13.95;8.43;;;17.90;99.90;;;;;;5006635;28;20648;-76
2022/08/05 08:30:00;;;;;;;12.18;7.65;;;18.00;99.90;;;;;;4974228;28;20079;-76
2022/08/05 08:32:26;;;;;;;12.32;8.90;;;17.90;99.90;;;;;;4991568;28;20393;-76
2022/08/05 08:34:52;;;;;;;11.02;8.05;;;17.90;99.90;;;;;;4973739;28;20030;-76
2022/08/05 08:37:18;;;;;;;10.60;7.00;;;17.90;99.90;;;;;;4994259;28;20029;-76
2022/08/05 08:39:43;;;;;;;9.98;6.60;;;17.90;99.90;;;;;;5026136;28;20101;-75
2022/08/05 08:42:09;;;;;;;12.00;6.97;;;18.00;99.90;;;;;;5024303;28;20105;-75
2022/08/05 08:44:34;;;;;;;13.10;6.97;;;18.00;99.90;;;;;;5010455;28;20026;-77
2022/08/05 08:47:04;;;;;;;12.55;6.93;;;18.10;99.90;;;;;;4991362;28;20026;-76
2022/08/05 08:49:30;;;;;;;10.43;6.35;;;18.10;99.90;;;;;;4977857;28;20073;-76
2022/08/05 08:52:02;;;;;;;8.90;6.65;;;18.10;99.90;;;;;;5008081;28;20095;-76
2022/08/05 08:54:29;;;;;;;12.25;6.90;;;18.20;99.90;;;;;;5009186;28;20037;-76
2022/08/05 08:56:54;;;;;;;11.82;7.45;;;18.10;99.90;;;;;;5011448;28;20041;-77
2022/08/05 08:59:20;;;;;;;11.45;7.70;;;18.20;99.90;;;;;;5006132;28;20041;-76
2022/08/05 09:01:46;;;;;;;12.25;7.55;;;18.20;99.90;;;;;;5003678;28;20022;-77
2022/08/05 09:04:12;;;;;;;14.93;7.38;;;18.20;99.90;;;;;;5005871;28;20049;-76
2022/08/05 09:06:37;;;;;;;8.85;7.30;;;18.30;99.90;;;;;;5006087;28;20044;-77
2022/08/05 09:09:03;;;;;;;10.68;7.15;;;18.30;99.90;;;;;;5008490;28;20056;-77
2022/08/05 09:11:29;;;;;;;12.55;6.22;;;18.50;99.90;;;;;;5008806;28;20038;-77
2022/08/05 09:13:55;;;;;;;7.82;6.32;;;18.60;99.90;;;;;;5015842;28;20037;-76
2022/08/05 09:16:20;;;;;;;12.23;6.32;;;18.70;99.90;;;;;;5009797;28;20038;-76
2022/08/05 09:18:47;;;;;;;9.50;6.05;;;18.80;99.90;;;;;;4993664;28;20029;-76
2022/08/05 09:21:13;;;;;;;7.15;5.20;;;18.90;99.90;;;;;;5016132;28;20477;-77
2022/08/05 09:23:39;;;;;;;10.25;5.75;;;19.00;99.90;;;;;;5025674;28;20034;-77
2022/08/05 09:26:06;;;;;;;7.50;5.55;;;19.10;99.90;;;;;;5010786;28;20034;-77
2022/08/05 09:28:32;;;;;;;11.32;5.93;;;19.30;99.90;;;;;;4990084;28;20414;-77
2022/08/05 09:31:05;;;;;;;13.32;6.47;;;19.40;99.90;;;;;;5004620;28;20029;-76
2022/08/05 09:33:30;;;;;;;8.63;5.85;;;19.50;99.90;;;;;;4997079;28;20031;-77
2022/08/05 09:36:02;;;;;;;10.23;5.43;;;19.60;99.90;;;;;;5005001;28;20045;-76
2022/08/05 09:38:28;;;;;;;6.82;5.00;;;19.70;99.90;;;;;;4991460;28;20045;-76
2022/08/05 09:41:02;;;;;;;7.65;4.68;;;19.70;99.90;;;;;;4990747;28;20378;-76
2022/08/05 09:43:30;;;;;;;6.40;4.70;;;19.80;99.90;;;;;;5012068;28;20030;-77
2022/08/05 09:45:56;;;;;;;11.38;5.63;;;19.90;99.90;;;;;;5006600;28;20060;-77
2022/08/05 09:48:34;;;;;;;6.85;4.88;;;20.00;99.90;;;;;;4996732;28;20049;-77
2022/08/05 09:51:10;;;;;;;9.18;4.65;;;20.00;99.90;;;;;;4989603;28;20568;-77
2022/08/05 09:53:49;;;;;;;6.68;4.43;;;20.00;99.90;;;;;;4992664;28;20038;-77
2022/08/05 09:56:32;;;;;;;11.63;4.45;;;20.00;99.90;;;;;;5005276;28;20386;-77
2022/08/05 09:58:59;;;;;;;6.05;3.67;;;19.90;99.90;;;;;;4977902;28;20056;-77
2022/08/05 10:01:24;;;;;;;9.63;3.60;;;19.90;99.90;;;;;;5009353;28;20034;-77
2022/08/05 10:04:03;;;;;;;3.95;3.50;;;19.90;99.90;;;;;;4998472;28;20543;-76
2022/08/05 10:06:29;;;;;;;6.35;3.55;;;19.90;99.90;;;;;;5000082;28;20088;-76
2022/08/05 10:08:55;;;;;;;8.30;3.83;;;20.00;99.90;;;;;;5006790;28;20544;-77
2022/08/05 10:11:21;;;;;;;5.95;4.25;;;20.10;99.90;;;;;;4991079;28;20065;-77
2022/08/05 10:13:47;;;;;;;8.50;4.10;;;20.10;99.90;;;;;;5007877;28;20085;-76
2022/08/05 10:16:33;;;;;;;6.75;3.20;;;20.10;99.90;;;;;;4987705;28;20046;-76
2022/08/05 10:19:00;;;;;;;7.65;3.80;;;20.30;99.90;;;;;;5009957;28;20038;-77
2022/08/05 10:21:26;;;;;;;9.15;3.60;;;20.30;99.90;;;;;;4974802;28;20029;-76
2022/08/05 10:23:51;;;;;;;5.85;4.20;;;20.50;99.90;;;;;;5024257;28;20038;-76
2022/08/05 10:26:17;;;;;;;7.57;3.78;;;20.70;99.90;;;;;;5024021;28;20613;-76
2022/08/05 10:28:43;;;;;;;5.60;3.08;;;21.00;99.90;;;;;;5009045;28;20030;-76
2022/08/05 10:31:10;;;;;;;8.27;3.42;;;21.20;99.90;;;;;;5016294;28;20037;-75
2022/08/05 10:33:36;;;;;;;5.50;3.47;;;21.40;99.90;;;;;;5010336;28;20086;-76
2022/08/05 10:36:04;;;;;;;6.50;4.03;;;21.70;99.90;;;;;;4992332;28;20452;-77
2022/08/05 10:38:31;;;;;;;8.20;4.40;;;22.00;99.90;;;;;;5025004;28;20498;-76
2022/08/05 10:41:07;;;;;;;8.57;4.68;;;22.30;99.90;;;;;;4993736;28;20030;-76
2022/08/05 10:43:44;;;;;;;4.05;3.20;;;22.70;99.90;;;;;;4993830;28;20495;-76
2022/08/05 10:46:17;;;;;;;9.77;3.53;;;23.00;99.90;;;;;;5017059;28;20030;-77
2022/08/05 10:48:44;;;;;;;6.82;5.07;;;23.30;99.90;;;;;;5009840;28;20156;-76
2022/08/05 10:51:14;;;;;;;7.82;4.93;;;23.60;99.90;;;;;;4994623;28;20117;-77
2022/08/05 10:53:41;;;;;;;6.82;4.20;;;23.90;99.90;;;;;;5011503;28;21351;-76
2022/08/05 10:56:13;;;;;;;4.18;3.53;;;24.10;99.90;;;;;;5012232;28;20042;-76
2022/08/05 10:59:09;;;;;;;8.88;3.75;;;24.40;99.90;;;;;;5026705;28;20159;-76
2022/08/05 11:01:35;;;;;;;4.97;3.38;;;24.70;99.90;;;;;;4985320;28;20621;-77
2022/08/05 11:04:13;;;;;;;6.57;3.55;;;25.00;99.90;;;;;;5012087;28;20029;-76
2022/08/05 11:06:59;;;;;;;4.63;3.30;;;25.10;99.90;;;;;;4992611;28;20030;-76
2022/08/05 11:09:26;;;;;;;5.85;2.75;;;25.40;99.90;;;;;;5008901;28;20049;-76
2022/08/05 11:11:52;;;;;;;6.78;3.90;;;25.50;99.90;;;;;;5001678;28;20494;-76
2022/08/05 11:14:42;;;;;;;4.78;3.50;;;25.70;99.90;;;;;;5010713;28;20103;-75
2022/08/05 11:17:26;;;;;;;4.40;3.65;;;25.80;99.90;;;;;;5010103;28;20504;-76
2022/08/05 11:19:56;;;;;;;5.07;3.38;;;26.10;99.90;;;;;;5014512;28;20029;-76
2022/08/05 11:22:46;;;;;;;7.45;4.13;;;26.20;99.90;;;;;;4980003;28;20030;-76
2022/08/05 11:25:30;;;;;;;3.58;3.28;;;26.50;99.90;;;;;;4996419;28;20034;-76
2022/08/05 11:28:17;;;;;;;7.28;4.22;;;26.80;99.90;;;;;;5008958;28;20037;-76
2022/08/05 11:30:54;;;;;;;9.52;4.72;;;26.90;99.90;;;;;;4998383;28;20564;-76
2022/08/05 11:33:30;;;;;;;4.28;3.92;;;27.20;99.30;;;;;;4331328;28;10001469;-77
2022/08/05 11:35:55;;;;;;;;;;;27.20;98.50;;;;;;5010646;28;20044;-77
2022/08/05 11:38:40;;;;;;;5.65;4.05;;;27.40;98.80;;;;;;5007426;28;20007;-76
2022/08/05 11:41:25;;;;;;;8.13;4.15;;;27.60;97.90;;;;;;5008418;28;20041;-77
2022/08/05 11:44:11;;;;;;;4.25;3.95;;;27.80;97.70;;;;;;5005519;28;20037;-76
2022/08/05 11:46:50;;;;;;;4.20;3.72;;;28.00;98.80;;;;;;5004634;28;20041;-77
2022/08/05 11:49:17;;;;;;;4.75;3.80;;;28.00;96.60;;;;;;4988221;28;20037;-77
2022/08/05 11:51:47;;;;;;;5.55;3.92;;;28.20;96.20;;;;;;5003754;28;20509;-76
2022/08/05 11:54:14;;;;;;;4.30;3.60;;;28.40;95.80;;;;;;5004174;28;20041;-76
2022/08/05 11:56:49;;;;;;;5.18;4.18;;;28.60;95.80;;;;;;4991711;28;20623;-77
2022/08/05 11:59:16;;;;;;;5.80;4.18;;;28.90;94.90;;;;;;4993775;28;20057;-77
2022/08/05 12:02:11;;;;;;;4.45;4.05;;;29.20;94.80;;;;;;5005255;28;20033;-77
2022/08/05 12:04:40;;;;;;;4.95;3.97;;;29.20;94.90;;;;;;4989515;28;20046;-77
2022/08/05 12:07:06;;;;;;;6.03;3.88;;;29.20;93.50;;;;;;5010022;28;20601;-77
2022/08/05 12:09:36;;;;;;;5.97;4.10;;;29.40;92.00;;;;;;4991183;28;20042;-77
2022/08/05 12:12:03;;;;;;;3.83;3.17;;;29.50;90.50;;;;;;5010721;28;20044;-76
2022/08/05 12:14:43;;;;;;;6.07;3.83;;;29.60;91.40;;;;;;5010162;28;20033;-77
2022/08/05 12:17:10;;;;;;;5.88;3.67;;;29.50;90.60;;;;;;4972711;28;20118;-76
2022/08/05 12:19:48;;;;;;;5.85;3.92;;;29.60;89.90;;;;;;5008465;28;20072;-76
2022/08/05 12:22:14;;;;;;;6.53;3.67;;;29.40;89.00;;;;;;5027643;28;20032;-76
2022/08/05 12:24:44;;;;;;;4.00;2.95;;;29.40;82.30;;;;;;5012537;28;20088;-77
2022/08/05 12:27:17;;;;;;;6.30;3.13;;;29.60;86.80;;;;;;5011096;28;20024;-77
2022/08/05 12:29:43;;;;;;;7.60;3.20;;;29.50;86.20;;;;;;4979617;28;20026;-76
2022/08/05 12:32:08;;;;;;;3.80;2.88;;;29.40;83.20;;;;;;4987940;28;20018;-76
2022/08/05 12:34:35;;;;;;;4.90;2.30;;;29.30;86.20;;;;;;5010796;28;20038;-77
2022/08/05 12:37:09;;;;;;;4.35;2.00;;;29.60;86.70;;;;;;5012939;28;20038;-77
2022/08/05 12:39:38;;;;;;;5.70;2.53;;;30.00;85.70;;;;;;4983180;28;20401;-77
2022/08/05 12:42:08;;;;;;;4.57;2.60;;;30.20;84.10;;;;;;5010826;28;20044;-78
2022/08/05 12:44:33;;;;;;;4.90;3.38;;;30.70;82.70;;;;;;4993020;28;20041;-78
2022/08/05 12:46:59;;;;;;;3.63;2.80;;;30.80;76.80;;;;;;5010503;28;20030;-78